Carl Fisher, Florida
Current Conditions -  °F | °C
As of 2:53 PM on Friday 19 Dec 2014 (Local Time) from KMIA Reporting Station
Scattered Clouds Scattered Clouds  
Wind Chill: 76°   Ceiling: Unl
Heat Index: 76°   Visibility: 10mi
Dew Point: 60°   Wind: 10mph
Humidity: 58%   Direction: 120°ESE
Pressure: 30.03"   Gusts: NA
Location:  25.791°N, 80.1427°W
Report Text: KMIA 191953Z 12009KT 10SM SCT033 24/16 A3003 RMK AO2 SLP169 T02440156
Loading
Personal Weather Stations






























Interactive Weather Map New forecast layout! Learn more

10-Day Weather Forecast

Advertisements
Track Severe Weather on mobile